createdAt,value
2023-01-04T00:01:15.091Z,95806.19
2023-01-04T00:03:42.391Z,95811.41
2023-01-04T00:06:13.531Z,95798.78
2023-01-04T00:08:40.711Z,95794.72
2023-01-04T00:11:14.711Z,95789.78
2023-01-04T00:13:41.681Z,95787.41
2023-01-04T00:16:16.699Z,95774.91
2023-01-04T00:18:44.243Z,95778.78
2023-01-04T00:21:22.356Z,95792.81
2023-01-04T00:23:53.469Z,95793.84
2023-01-04T00:26:24.510Z,95790.53
2023-01-04T00:29:01.240Z,95799.38
2023-01-04T00:31:29.170Z,95783.72
2023-01-04T00:33:58.007Z,95797.91
2023-01-04T00:36:25.451Z,95795.59
2023-01-04T00:39:07.990Z,95799.66
2023-01-04T00:42:00.710Z,95774.44
2023-01-04T00:44:29.230Z,95776.31
2023-01-04T00:46:56.395Z,95779.66
2023-01-04T00:49:23.450Z,95775.25
2023-01-04T00:51:50.534Z,95785.59
2023-01-04T00:54:17.776Z,95774.97
2023-01-04T00:56:45.201Z,95766.94
2023-01-04T00:59:18.826Z,95763.53
2023-01-04T01:01:46.344Z,95762.28
2023-01-04T01:04:16.782Z,95764.16
2023-01-04T01:06:43.624Z,95758.75
2023-01-04T01:09:10.477Z,95748.53
2023-01-04T01:11:39.075Z,95758.84
2023-01-04T01:14:07.500Z,95761.69
2023-01-04T01:19:20.990Z,95759.16
2023-01-04T01:21:48.344Z,95763.88
2023-01-04T01:24:20.125Z,95772.50
2023-01-04T01:26:47.091Z,95772.00
2023-01-04T01:29:14.259Z,95764.91
2023-01-04T01:31:42.028Z,95764.91
2023-01-04T01:34:09.398Z,95771.78
2023-01-04T01:36:36.868Z,95773.44
2023-01-04T01:39:05.193Z,95774.31
2023-01-04T01:41:34.635Z,95776.78
2023-01-04T01:44:07.204Z,95772.19
2023-01-04T01:46:44.516Z,95767.81
2023-01-04T01:49:30.706Z,95769.47
2023-01-04T01:52:02.915Z,95773.38
2023-01-04T01:54:43.581Z,95776.38
2023-01-04T01:57:14.485Z,95780.53
2023-01-04T01:59:44.597Z,95780.97
2023-01-04T02:02:12.282Z,95756.16
2023-01-04T02:04:43.779Z,95779.41
2023-01-04T02:07:12.422Z,95782.72
2023-01-04T02:09:40.898Z,95772.50
2023-01-04T02:12:12.888Z,95779.81
2023-01-04T02:14:41.164Z,95771.97
2023-01-04T02:17:52.881Z,95778.22
2023-01-04T02:20:50.472Z,95758.44
2023-01-04T02:23:43.745Z,95764.19
2023-01-04T02:26:31.092Z,95761.78
2023-01-04T02:29:22.463Z,95765.66
2023-01-04T02:31:59.183Z,95758.56
2023-01-04T02:34:44.651Z,95756.16
2023-01-04T02:37:33.809Z,95762.09
2023-01-04T02:40:10.641Z,95760.94
2023-01-04T02:43:04.587Z,95720.84
2023-01-04T02:45:39.498Z,95747.28
2023-01-04T02:48:26.302Z,95741.53
2023-01-04T02:51:00.205Z,95745.22
2023-01-04T02:53:44.896Z,95743.44
2023-01-04T02:56:35.654Z,95746.88
2023-01-04T02:59:20.584Z,95746.00
2023-01-04T03:02:12.058Z,95746.97
2023-01-04T03:05:29.130Z,95753.63
2023-01-04T03:08:40.419Z,95745.72
2023-01-04T03:11:32.047Z,95748.13
2023-01-04T03:14:32.112Z,95743.94
2023-01-04T03:17:04.950Z,95729.16
2023-01-04T03:19:51.987Z,95741.97
2023-01-04T03:22:51.784Z,95722.97
2023-01-04T03:25:42.650Z,95732.47
2023-01-04T03:28:32.784Z,95721.94
2023-01-04T03:31:32.035Z,95728.81
2023-01-04T03:34:18.185Z,95726.50
2023-01-04T03:37:16.548Z,95719.31
2023-01-04T03:40:36.724Z,95713.47
2023-01-04T03:43:37.462Z,95710.78
2023-01-04T03:46:47.574Z,95702.22
2023-01-04T03:49:20.968Z,95712.94
2023-01-04T03:51:49.730Z,95698.28
2023-01-04T03:54:39.546Z,95701.50
2023-01-04T03:57:09.252Z,95699.19
2023-01-04T03:59:49.520Z,95695.41
2023-01-04T04:02:19.595Z,95683.59
2023-01-04T04:05:05.047Z,95683.63
2023-01-04T04:07:50.616Z,95691.66
2023-01-04T04:10:17.472Z,95672.47
2023-01-04T04:12:44.359Z,95682.91
2023-01-04T04:15:11.474Z,95678.84
2023-01-04T04:17:38.329Z,95674.22
2023-01-04T04:20:05.921Z,95672.47
2023-01-04T04:22:32.714Z,95683.38
2023-01-04T04:24:59.476Z,95686.97
2023-01-04T04:27:26.246Z,95687.06
2023-01-04T04:29:53.007Z,95672.84
2023-01-04T04:32:19.753Z,95677.44
2023-01-04T04:34:46.488Z,95685.41
2023-01-04T04:37:13.223Z,95691.66
2023-01-04T04:39:39.953Z,95683.09
2023-01-04T04:42:06.763Z,95678.28
2023-01-04T04:44:35.234Z,95678.41
2023-01-04T04:47:02.269Z,95675.47
2023-01-04T04:49:30.246Z,95665.13
2023-01-04T04:51:57.012Z,95655.75
2023-01-04T04:54:23.788Z,95667.03
2023-01-04T04:56:50.700Z,95667.00
2023-01-04T04:59:18.128Z,95669.25
2023-01-04T05:01:45.140Z,95666.38
2023-01-04T05:04:17.043Z,95655.44
2023-01-04T05:06:44.818Z,95661.38
2023-01-04T05:09:15.827Z,95663.88
2023-01-04T05:12:02.183Z,95661.53
2023-01-04T05:14:29.107Z,95654.78
2023-01-04T05:16:56.048Z,95672.59
2023-01-04T05:19:22.828Z,95671.63
2023-01-04T05:21:49.552Z,95670.25
2023-01-04T05:24:16.322Z,95675.91
2023-01-04T05:26:43.054Z,95656.22
2023-01-04T05:29:29.760Z,95663.81
2023-01-04T05:31:56.587Z,95660.72
2023-01-04T05:34:23.368Z,95644.16
2023-01-04T05:36:52.911Z,95632.13
2023-01-04T05:39:19.644Z,95629.63
2023-01-04T05:42:05.221Z,95653.81
2023-01-04T05:44:31.968Z,95645.22
2023-01-04T05:46:58.758Z,95639.06
2023-01-04T05:49:25.499Z,95635.25
2023-01-04T05:51:52.227Z,95647.22
2023-01-04T05:54:21.472Z,95636.50
2023-01-04T05:56:48.493Z,95637.78
2023-01-04T05:59:16.291Z,95644.69
2023-01-04T06:01:43.188Z,95651.72
2023-01-04T06:04:10.161Z,95637.41
2023-01-04T06:06:37.049Z,95640.94
2023-01-04T06:09:04.075Z,95647.50
2023-01-04T06:11:30.821Z,95643.16
2023-01-04T06:13:58.079Z,95631.34
2023-01-04T06:16:24.914Z,95649.47
2023-01-04T06:18:51.748Z,95648.94
2023-01-04T06:21:18.569Z,95642.28
2023-01-04T06:23:45.377Z,95658.72
2023-01-04T06:26:12.245Z,95651.81
2023-01-04T06:28:41.257Z,95645.41
2023-01-04T06:31:10.315Z,95654.38
2023-01-04T06:33:37.446Z,95650.38
2023-01-04T06:36:05.614Z,95651.78
2023-01-04T06:38:33.477Z,95645.69
2023-01-04T06:41:00.477Z,95651.81
2023-01-04T06:43:27.238Z,95642.66
2023-01-04T06:45:54.026Z,95642.50
2023-01-04T06:48:20.792Z,95659.97
2023-01-04T06:50:47.516Z,95658.09
2023-01-04T06:53:14.297Z,95650.81
2023-01-04T06:55:41.058Z,95640.63
2023-01-04T06:58:07.814Z,95634.56
2023-01-04T07:00:34.551Z,95641.63
2023-01-04T07:03:13.540Z,95644.69
2023-01-04T07:05:41.919Z,95642.28
2023-01-04T07:08:08.744Z,95642.06
2023-01-04T07:10:35.668Z,95639.19
2023-01-04T07:13:02.628Z,95643.72
2023-01-04T07:15:43.259Z,95649.91
2023-01-04T07:18:11.132Z,95649.47
2023-01-04T07:20:38.945Z,95649.47
2023-01-04T07:23:07.051Z,95655.38
2023-01-04T07:25:34.039Z,95637.44
2023-01-04T07:28:00.876Z,95637.84
2023-01-04T07:30:27.983Z,95643.88
2023-01-04T07:32:55.714Z,95655.53
2023-01-04T07:35:23.094Z,95654.69
2023-01-04T07:37:57.420Z,95666.44
2023-01-04T07:40:25.366Z,95666.56
2023-01-04T07:42:58.487Z,95656.28
2023-01-04T07:45:26.455Z,95653.56
2023-01-04T07:47:53.711Z,95652.06
2023-01-04T07:50:20.464Z,95637.63
2023-01-04T07:52:47.322Z,95635.25
2023-01-04T07:55:14.193Z,95618.91
2023-01-04T07:57:40.989Z,95640.50
2023-01-04T08:00:09.680Z,95657.59
2023-01-04T08:02:36.581Z,95654.25
2023-01-04T08:05:03.680Z,95649.75
2023-01-04T08:07:30.532Z,95644.56
2023-01-04T08:09:57.303Z,95650.38
2023-01-04T08:12:24.055Z,95654.06
2023-01-04T08:14:50.850Z,95652.50
2023-01-04T08:17:17.605Z,95662.41
2023-01-04T08:19:46.772Z,95654.22
2023-01-04T08:22:14.376Z,95652.06
2023-01-04T08:24:41.126Z,95647.66
2023-01-04T08:27:08.487Z,95650.41
2023-01-04T08:29:35.661Z,95646.75
2023-01-04T08:32:02.687Z,95637.13
2023-01-04T08:34:30.035Z,95649.34
2023-01-04T08:36:56.820Z,95655.19
2023-01-04T08:39:23.571Z,95638.41
2023-01-04T08:44:41.043Z,95615.63
2023-01-04T08:47:07.874Z,95614.97
2023-01-04T08:49:34.695Z,95626.16
2023-01-04T08:52:01.723Z,95625.44
2023-01-04T08:54:28.475Z,95618.56
2023-01-04T08:56:55.223Z,95612.25
2023-01-04T08:59:21.960Z,95615.44
2023-01-04T09:01:48.812Z,95609.41
2023-01-04T09:04:15.805Z,95616.78
2023-01-04T09:06:42.793Z,95623.28
2023-01-04T09:09:09.549Z,95618.31
2023-01-04T09:11:38.352Z,95613.56
2023-01-04T09:14:08.369Z,95601.81
2023-01-04T09:16:36.828Z,95604.53
2023-01-04T09:19:04.492Z,95608.00
2023-01-04T09:21:31.314Z,95618.19
2023-01-04T09:24:01.326Z,95611.44
2023-01-04T09:26:28.247Z,95611.44
2023-01-04T09:28:56.748Z,95618.44
2023-01-04T09:31:28.920Z,95619.28
2023-01-04T09:34:15.331Z,95615.97
2023-01-04T09:36:45.605Z,95600.50
2023-01-04T09:39:21.024Z,95584.81
2023-01-04T09:41:57.372Z,95598.38
2023-01-04T09:47:41.255Z,95582.31
2023-01-04T09:50:24.406Z,95596.69
2023-01-04T09:52:50.983Z,95597.75
2023-01-04T09:55:36.889Z,95596.97
2023-01-04T09:58:31.216Z,95578.19
2023-01-04T10:01:06.778Z,95582.66
2023-01-04T10:03:38.909Z,95575.31
2023-01-04T10:06:13.208Z,95582.19
2023-01-04T10:08:44.595Z,95583.16
2023-01-04T10:12:06.844Z,95588.47
2023-01-04T10:15:24.899Z,95586.00
2023-01-04T10:19:59.765Z,95590.97
2023-01-04T10:21:35.355Z,95585.38
2023-01-04T10:25:18.940Z,95586.22
2023-01-04T10:27:59.923Z,95585.94
2023-01-04T10:30:55.178Z,95581.56
2023-01-04T10:33:48.608Z,95577.66
2023-01-04T10:36:31.478Z,95585.94
2023-01-04T10:39:11.128Z,95572.91
2023-01-04T10:41:44.277Z,95582.28
2023-01-04T10:44:42.615Z,95575.06
2023-01-04T10:47:37.299Z,95574.81
2023-01-04T10:51:09.838Z,95560.56
2023-01-04T10:53:48.685Z,95561.38
2023-01-04T10:56:39.351Z,95552.94
2023-01-04T10:59:19.476Z,95547.50
2023-01-04T11:01:54.516Z,95524.69
2023-01-04T11:05:28.376Z,95539.97
2023-01-04T11:08:21.140Z,95556.97
2023-01-04T11:10:50.673Z,95535.81
2023-01-04T11:13:17.451Z,95528.50
2023-01-04T11:15:45.515Z,95531.63
2023-01-04T11:18:14.237Z,95523.91
2023-01-04T11:20:41.430Z,95526.50
2023-01-04T11:23:15.676Z,95539.16
2023-01-04T11:25:55.495Z,95538.84
2023-01-04T11:28:59.099Z,95539.09
2023-01-04T11:31:47.611Z,95531.75
2023-01-04T11:34:14.407Z,95528.78
2023-01-04T11:36:46.998Z,95532.88
2023-01-04T11:39:26.887Z,95525.81
2023-01-04T11:42:04.564Z,95520.25
2023-01-04T11:44:33.773Z,95527.38
2023-01-04T11:47:19.435Z,95497.25
2023-01-04T11:49:46.618Z,95500.09
2023-01-04T11:52:36.802Z,95490.75
2023-01-04T11:55:27.995Z,95499.91
2023-01-04T11:58:16.245Z,95492.38
2023-01-04T12:00:57.400Z,95490.59
2023-01-04T12:03:32.585Z,95486.63
2023-01-04T12:05:59.690Z,95483.88
2023-01-04T12:08:35.695Z,95472.59
2023-01-04T12:11:05.784Z,95490.59
2023-01-04T12:13:35.554Z,95486.38
2023-01-04T12:16:18.408Z,95477.31
2023-01-04T12:18:46.652Z,95473.47
2023-01-04T12:21:23.147Z,95477.84
2023-01-04T12:23:50.682Z,95469.66
2023-01-04T12:26:18.943Z,95476.03
2023-01-04T12:28:54.235Z,95482.16
2023-01-04T12:31:21.786Z,95484.84
2023-01-04T12:33:52.242Z,95477.78
2023-01-04T12:36:37.991Z,95475.53
2023-01-04T12:39:16.722Z,95473.84
2023-01-04T12:41:45.285Z,95473.84
2023-01-04T12:44:36.745Z,95470.59
2023-01-04T12:47:44.301Z,95475.00
2023-01-04T12:50:19.843Z,95460.34
2023-01-04T12:53:38.808Z,95471.69
2023-01-04T12:55:54.809Z,95477.22
2023-01-04T13:01:28.304Z,95463.94
2023-01-04T13:04:06.187Z,95457.59
2023-01-04T13:06:43.003Z,95450.56
2023-01-04T13:09:24.139Z,95451.25
2023-01-04T13:12:13.529Z,95430.25
2023-01-04T13:14:51.283Z,95437.63
2023-01-04T13:17:22.188Z,95434.97
2023-01-04T13:19:50.083Z,95431.25
2023-01-04T13:22:28.898Z,95439.81
2023-01-04T13:24:58.898Z,95428.22
2023-01-04T13:27:27.075Z,95429.88
2023-01-04T13:29:54.096Z,95434.84
2023-01-04T13:32:29.715Z,95441.91
2023-01-04T13:35:14.369Z,95440.84
2023-01-04T13:37:48.251Z,95430.03
2023-01-04T13:40:29.833Z,95437.25
2023-01-04T13:43:16.239Z,95430.94
2023-01-04T13:46:18.960Z,95435.38
2023-01-04T13:48:48.512Z,95426.13
2023-01-04T13:51:36.403Z,95426.13
2023-01-04T13:54:16.595Z,95431.09
2023-01-04T13:56:43.325Z,95424.66
2023-01-04T14:50:54.009Z,95396.81
2023-01-04T14:53:21.516Z,95405.25
2023-01-04T14:55:48.323Z,95400.41
2023-01-04T14:58:15.064Z,95397.16
2023-01-04T15:00:41.839Z,95395.63
2023-01-04T15:03:09.895Z,95403.66
2023-01-04T15:05:38.007Z,95405.09
2023-01-04T15:08:05.201Z,95393.75
2023-01-04T15:10:32.375Z,95403.38
2023-01-04T15:13:00.818Z,95398.91
2023-01-04T15:15:27.803Z,95411.38
2023-01-04T15:17:54.534Z,95401.94
2023-01-04T15:20:21.279Z,95397.31
2023-01-04T15:22:48.216Z,95403.69
2023-01-04T15:25:14.952Z,95381.19
2023-01-04T15:27:42.729Z,95374.72
2023-01-04T15:30:12.064Z,95377.75
2023-01-04T15:32:39.772Z,95372.84
2023-01-04T15:35:06.972Z,95372.84
2023-01-04T15:37:33.749Z,95362.38
2023-01-04T15:40:03.199Z,95361.50
2023-01-04T15:42:49.264Z,95354.50
2023-01-04T15:45:16.137Z,95352.84
2023-01-04T15:47:42.895Z,95367.09
2023-01-04T15:50:10.073Z,95361.31
2023-01-04T15:52:36.955Z,95357.16
2023-01-04T15:55:04.078Z,95349.84
2023-01-04T15:57:30.888Z,95364.63
2023-01-04T15:59:57.693Z,95339.09
2023-01-04T16:02:24.928Z,95368.06
2023-01-04T16:04:51.741Z,95364.91
2023-01-04T16:07:18.790Z,95361.16
2023-01-04T16:09:45.554Z,95363.25
2023-01-04T16:12:31.253Z,95364.38
2023-01-04T16:14:57.991Z,95366.72
2023-01-04T16:17:25.402Z,95374.03
2023-01-04T16:19:52.149Z,95351.53
2023-01-04T16:22:19.017Z,95354.16
2023-01-04T16:25:09.727Z,95353.22
2023-01-04T16:27:35.646Z,95356.41
2023-01-04T16:30:05.005Z,95358.63
2023-01-04T16:32:31.850Z,95355.44
2023-01-04T16:34:58.579Z,95339.00
2023-01-04T16:37:30.648Z,95347.13
2023-01-04T16:40:06.485Z,95345.63
2023-01-04T16:42:33.936Z,95353.09
2023-01-04T16:45:00.701Z,95342.59
2023-01-04T16:47:27.543Z,95338.59
2023-01-04T16:49:54.531Z,95332.63
2023-01-04T16:52:21.626Z,95329.63
2023-01-04T16:54:49.336Z,95330.72
2023-01-04T16:57:16.079Z,95323.41
2023-01-04T16:59:43.080Z,95331.84
2023-01-04T17:02:12.321Z,95330.72
2023-01-04T17:04:39.140Z,95327.84
2023-01-04T17:07:06.545Z,95332.38
2023-01-04T17:09:33.470Z,95350.88
2023-01-04T17:15:00.739Z,95343.69
2023-01-04T17:17:34.667Z,95346.19
2023-01-04T17:20:01.513Z,95352.81
2023-01-04T17:22:34.039Z,95341.78
2023-01-04T17:25:01.230Z,95346.63
2023-01-04T17:27:27.963Z,95327.00
2023-01-04T17:29:54.790Z,95343.28
2023-01-04T17:32:21.565Z,95348.13
2023-01-04T17:34:50.231Z,95336.53
2023-01-04T17:37:16.950Z,95319.97
2023-01-04T17:39:43.759Z,95310.69
2023-01-04T17:42:10.497Z,95308.06
2023-01-04T17:44:37.235Z,95299.53
2023-01-04T17:47:04.018Z,95300.34
2023-01-04T17:49:32.511Z,95269.31
2023-01-04T17:52:00.029Z,95276.88
2023-01-04T17:54:27.160Z,95265.88
2023-01-04T17:56:54.144Z,95262.56
2023-01-04T17:59:21.219Z,95265.03
2023-01-04T18:01:48.127Z,95260.91
2023-01-04T18:04:15.033Z,95253.47
2023-01-04T18:06:41.897Z,95253.59
2023-01-04T18:09:09.343Z,95263.41
2023-01-04T18:11:37.411Z,95267.81
2023-01-04T18:14:07.925Z,95281.03
2023-01-04T18:16:57.012Z,95286.72
2023-01-04T18:19:30.180Z,95286.00
2023-01-04T18:21:58.507Z,95286.72
2023-01-04T18:24:41.636Z,95290.44
2023-01-04T18:27:21.601Z,95291.69
2023-01-04T18:29:50.248Z,95304.25
2023-01-04T18:32:17.157Z,95292.38
2023-01-04T18:34:44.052Z,95292.38
2023-01-04T18:37:10.823Z,95287.13
2023-01-04T18:39:37.547Z,95279.53
2023-01-04T18:42:04.542Z,95212.94
2023-01-04T18:44:33.509Z,95249.84
2023-01-04T18:47:01.254Z,95241.84
2023-01-04T18:49:28.243Z,95237.72
2023-01-04T18:51:55.191Z,95237.59
2023-01-04T18:54:22.216Z,95284.63
2023-01-04T18:56:49.407Z,95257.59
2023-01-04T18:59:19.501Z,95234.69
2023-01-04T19:01:46.636Z,95251.91
2023-01-04T19:04:16.445Z,95273.72
2023-01-04T19:06:43.953Z,95202.69
2023-01-04T19:09:11.238Z,95244.75
2023-01-04T19:11:38.334Z,95253.84
2023-01-04T19:14:11.411Z,95212.47
2023-01-04T19:16:38.608Z,95246.56
2023-01-04T19:19:05.755Z,95233.44
2023-01-04T19:21:32.843Z,95280.16
2023-01-04T19:23:59.804Z,95224.75
2023-01-04T19:26:26.780Z,95265.94
2023-01-04T19:28:53.748Z,95248.59
2023-01-04T19:31:22.404Z,95215.94
2023-01-04T19:33:50.563Z,95233.97
2023-01-04T19:36:19.535Z,95220.06
2023-01-04T19:38:57.654Z,95251.19
2023-01-04T19:41:34.695Z,95248.94
2023-01-04T19:44:02.951Z,95210.09
2023-01-04T19:46:32.000Z,95255.03
2023-01-04T19:48:59.075Z,95264.69
2023-01-04T19:51:28.071Z,95248.94
2023-01-04T19:53:55.219Z,95242.66
2023-01-04T19:56:22.442Z,95254.75
2023-01-04T19:58:49.888Z,95250.63
2023-01-04T20:01:20.232Z,95228.84
2023-01-04T20:03:48.097Z,95245.63
2023-01-04T20:06:16.420Z,95243.69
2023-01-04T20:08:44.176Z,95255.56
2023-01-04T20:11:12.399Z,95255.84
2023-01-04T20:13:40.566Z,95242.84
2023-01-04T20:16:08.505Z,95251.38
2023-01-04T20:18:43.331Z,95248.78
2023-01-04T20:21:14.626Z,95243.84
2023-01-04T20:23:42.099Z,95250.03
2023-01-04T20:26:18.818Z,95211.06
2023-01-04T20:28:46.255Z,95261.22
2023-01-04T20:31:16.715Z,95286.44
2023-01-04T20:33:47.779Z,95298.06
2023-01-04T20:36:19.887Z,95255.56
2023-01-04T20:38:48.789Z,95221.69
2023-01-04T20:41:19.899Z,95249.06
2023-01-04T20:43:47.965Z,95290.53
2023-01-04T20:46:19.810Z,95265.56
2023-01-04T20:48:47.803Z,95260.09
2023-01-04T20:51:25.398Z,95271.25
2023-01-04T20:53:53.051Z,95247.66
2023-01-04T20:56:24.715Z,95314.72
2023-01-04T20:58:53.300Z,95257.88
2023-01-04T21:01:22.155Z,95294.81
2023-01-04T21:03:49.772Z,95230.28
2023-01-04T21:06:18.819Z,95245.72
2023-01-04T21:08:47.292Z,95251.78
2023-01-04T21:11:14.964Z,95240.75
2023-01-04T21:13:42.731Z,95267.41
2023-01-04T21:16:11.111Z,95232.19
2023-01-04T21:18:38.585Z,95278.56
2023-01-04T21:21:08.463Z,95297.44
2023-01-04T21:23:36.752Z,95255.41
2023-01-04T21:26:08.321Z,95254.84
2023-01-04T21:28:36.295Z,95218.16
2023-01-04T21:31:15.442Z,95247.66
2023-01-04T21:33:47.367Z,95268.66
2023-01-04T21:36:21.231Z,95267.53
2023-01-04T21:38:50.071Z,95306.16
2023-01-04T21:41:17.555Z,95267.97
2023-01-04T21:43:45.053Z,95318.03
2023-01-04T21:46:15.255Z,95276.34
2023-01-04T21:48:44.114Z,95261.72
2023-01-04T21:51:12.570Z,95298.13
2023-01-04T21:53:40.726Z,95297.31
2023-01-04T21:56:15.693Z,95274.16
2023-01-04T21:58:44.133Z,95236.91
2023-01-04T22:01:16.845Z,95307.66
2023-01-04T22:03:44.354Z,95306.84
2023-01-04T22:06:13.799Z,95243.81
2023-01-04T22:08:46.537Z,95275.50
2023-01-04T22:11:15.387Z,95278.03
2023-01-04T22:13:43.392Z,95260.22
2023-01-04T22:16:15.408Z,95265.19
2023-01-04T22:18:48.892Z,95247.25
2023-01-04T22:21:18.887Z,95267.09
2023-01-04T22:23:46.102Z,95264.19
2023-01-04T22:26:13.224Z,95294.09
2023-01-04T22:28:40.641Z,95251.22
2023-01-04T22:31:11.060Z,95244.84
2023-01-04T22:33:39.282Z,95233.84
2023-01-04T22:36:22.275Z,95246.09
2023-01-04T22:38:51.421Z,95239.59
2023-01-04T22:41:24.320Z,95227.47
2023-01-04T22:43:59.010Z,95221.94
2023-01-04T22:46:28.228Z,95214.25
2023-01-04T22:48:55.948Z,95218.63
2023-01-04T22:51:24.414Z,95218.03
2023-01-04T22:53:55.545Z,95185.09
2023-01-04T22:56:23.342Z,95219.97
2023-01-04T22:58:54.646Z,95228.81
2023-01-04T23:01:28.291Z,95230.66
2023-01-04T23:03:57.011Z,95175.44
2023-01-04T23:06:25.690Z,95217.25
2023-01-04T23:09:04.277Z,95224.97
2023-01-04T23:11:34.074Z,95204.25
2023-01-04T23:14:06.679Z,95206.22
2023-01-04T23:16:33.880Z,95211.13
2023-01-04T23:19:06.245Z,95212.75
2023-01-04T23:21:34.986Z,95203.19
2023-01-04T23:24:02.299Z,95187.47
2023-01-04T23:26:31.679Z,95237.03
2023-01-04T23:29:00.214Z,95155.47
2023-01-04T23:31:29.645Z,95194.84
2023-01-04T23:34:00.305Z,95183.66
2023-01-04T23:36:32.018Z,95137.75
2023-01-04T23:39:01.740Z,95142.47
2023-01-04T23:41:47.655Z,95184.34
2023-01-04T23:44:33.902Z,95201.97
2023-01-04T23:49:35.357Z,95172.25
2023-01-04T23:52:04.289Z,95152.72
2023-01-04T23:54:31.523Z,95117.34
2023-01-04T23:56:59.885Z,95122.06
2023-01-04T23:59:27.297Z,95150.38
